Time;durP1;ratioP1;P1;durP2;ratioP2;P2;SDS_P1;SDS_P2;PMS_P1;PMS_P2;Temp;Humidity;BMP_temperature;BMP_pressure;BME280_temperature;BME280_humidity;BME280_pressure;Samples;Min_cycle;Max_cycle;Signal;HPM_P1;HPM_P2
2021/07/23 00:00:32;;;;;;;17.27;7.00;;;;;;;19.99;78.32;99997.13;1779669;80;21160;-63
2021/07/23 00:03:01;;;;;;;13.32;6.55;;;;;;;19.98;78.48;99995.93;1779771;81;21530;-63
2021/07/23 00:05:30;;;;;;;10.25;6.70;;;;;;;19.97;78.52;99993.73;1779641;81;21159;-62
2021/07/23 00:07:59;;;;;;;10.90;4.50;;;;;;;19.99;78.30;99997.13;1779829;81;21095;-63
2021/07/23 00:10:27;;;;;;;7.53;2.90;;;;;;;20.01;78.15;99991.63;1779758;81;21522;-63
2021/07/23 00:12:56;;;;;;;7.53;3.20;;;;;;;20.02;77.99;100000.84;1779735;81;21507;-62
2021/07/23 00:15:25;;;;;;;6.00;2.33;;;;;;;20.02;77.95;100002.18;1779768;81;21077;-63
2021/07/23 00:17:54;;;;;;;6.47;2.70;;;;;;;20.03;77.94;100003.88;1779604;81;21092;-62
2021/07/23 00:20:22;;;;;;;4.83;2.55;;;;;;;20.04;77.88;100000.20;1779711;81;21112;-62
2021/07/23 00:22:51;;;;;;;5.03;2.45;;;;;;;20.05;77.82;100000.58;1779782;81;21163;-63
2021/07/23 00:25:20;;;;;;;10.58;3.17;;;;;;;20.05;77.77;99995.23;1779849;80;21080;-63
2021/07/23 00:27:49;;;;;;;5.10;2.52;;;;;;;20.05;77.71;99999.23;1779712;81;21512;-62
2021/07/23 00:30:18;;;;;;;4.72;2.27;;;;;;;20.06;77.70;100002.75;1779692;81;21094;-63
2021/07/23 00:32:47;;;;;;;10.32;3.35;;;;;;;20.06;77.68;100004.92;1779714;81;21198;-62
2021/07/23 00:35:16;;;;;;;7.12;3.83;;;;;;;20.08;77.73;100007.95;1779843;81;21593;-63
2021/07/23 00:37:44;;;;;;;7.33;3.65;;;;;;;20.09;77.67;100009.66;1779885;81;21068;-62
2021/07/23 00:40:14;;;;;;;11.15;5.58;;;;;;;20.07;77.89;100015.14;1779704;81;21068;-63
2021/07/23 00:42:44;;;;;;;14.75;6.92;;;;;;;20.08;77.84;100015.98;1779864;80;21151;-63
2021/07/23 00:45:13;;;;;;;17.07;6.08;;;;;;;20.08;77.89;100018.65;1779724;81;21625;-63
2021/07/23 00:47:46;;;;;;;11.15;4.37;;;;;;;20.05;78.01;100017.95;1779887;80;21072;-62
2021/07/23 00:50:15;;;;;;;12.30;3.92;;;;;;;20.03;77.95;100019.91;1779819;80;21072;-63
2021/07/23 00:52:46;;;;;;;11.70;4.33;;;;;;;19.98;77.99;100023.98;1759746;81;21105;-62
2021/07/23 00:55:17;;;;;;;9.18;5.08;;;;;;;19.93;78.08;100023.05;1779849;81;21057;-63
2021/07/23 00:57:47;;;;;;;12.78;4.78;;;;;;;19.90;78.10;100024.68;1779821;81;21135;-63
2021/07/23 01:00:18;;;;;;;9.23;5.15;;;;;;;19.89;78.16;100030.98;1782832;80;21569;-63
2021/07/23 01:02:53;;;;;;;10.20;5.25;;;;;;;19.87;78.19;100027.62;1792509;80;21103;-63
2021/07/23 01:05:22;;;;;;;7.92;4.72;;;;;;;19.89;78.21;100035.00;1793794;80;21072;-63
2021/07/23 01:07:51;;;;;;;11.90;4.22;;;;;;;19.91;78.20;100041.05;1793631;80;21088;-64
2021/07/23 01:10:20;;;;;;;8.40;3.42;;;;;;;19.92;78.21;100037.41;1793654;80;21131;-63
2021/07/23 01:13:06;;;;;;;8.78;3.40;;;;;;;19.94;78.26;100046.59;1793661;80;21166;-62
2021/07/23 01:15:37;;;;;;;11.05;4.10;;;;;;;19.96;78.25;100054.02;1793814;80;21146;-62
2021/07/23 01:18:06;;;;;;;7.78;4.05;;;;;;;19.95;78.45;100051.80;1793748;80;21130;-62
2021/07/23 01:20:36;;;;;;;12.35;4.45;;;;;;;19.95;78.37;100050.97;1793474;80;21111;-63
2021/07/23 01:23:06;;;;;;;12.60;4.03;;;;;;;19.93;78.49;100053.77;1793791;80;21127;-62
2021/07/23 01:25:37;;;;;;;11.55;4.53;;;;;;;19.91;78.63;100061.58;1793767;80;21530;-62
2021/07/23 01:28:07;;;;;;;9.20;4.05;;;;;;;19.86;78.69;100057.97;1793559;80;21084;-63
2021/07/23 01:30:41;;;;;;;6.58;3.52;;;;;;;19.85;78.62;100062.98;1793617;80;21519;-63
2021/07/23 01:33:17;;;;;;;8.13;4.03;;;;;;;19.86;78.56;100069.99;1793092;80;21111;-63
2021/07/23 01:35:47;;;;;;;9.40;3.77;;;;;;;19.85;78.52;100069.66;1793731;80;21096;-62
2021/07/23 01:38:19;;;;;;;6.12;3.87;;;;;;;19.85;78.60;100070.99;1793613;80;21044;-62
2021/07/23 01:40:49;;;;;;;13.35;4.47;;;;;;;19.83;78.60;100059.09;1793626;80;21068;-63
2021/07/23 01:43:18;;;;;;;7.70;4.17;;;;;;;19.85;78.59;100069.66;1793704;80;21138;-64
2021/07/23 01:45:47;;;;;;;9.00;4.00;;;;;;;19.83;78.73;100063.61;1793760;80;21052;-63
2021/07/23 01:48:34;;;;;;;8.98;4.08;;;;;;;19.83;78.83;100067.61;1793597;80;21162;-63
2021/07/23 01:51:03;;;;;;;8.95;4.75;;;;;;;19.84;78.79;100073.30;1793752;80;21115;-63
2021/07/23 01:53:32;;;;;;;8.65;4.53;;;;;;;19.84;78.86;100078.63;1793641;80;21119;-63
2021/07/23 01:56:01;;;;;;;7.62;3.90;;;;;;;19.86;78.85;100078.88;1793484;80;21174;-63
2021/07/23 01:58:34;;;;;;;8.00;3.70;;;;;;;19.86;78.85;100082.02;1793845;80;21087;-63
2021/07/23 02:01:04;;;;;;;12.00;3.83;;;;;;;19.88;78.81;100077.37;1790194;80;21100;-63
2021/07/23 02:03:34;;;;;;;8.60;4.40;;;;;;;19.87;78.80;100075.70;1779865;81;21132;-63
2021/07/23 02:06:03;;;;;;;10.98;4.17;;;;;;;19.90;78.89;100079.92;1759793;81;21213;-63
2021/07/23 02:08:33;;;;;;;8.23;4.33;;;;;;;19.88;79.10;100073.87;1779694;81;21594;-63
2021/07/23 02:11:04;;;;;;;8.78;4.60;;;;;;;19.87;79.25;100078.38;1779746;80;21111;-63
2021/07/23 02:13:33;;;;;;;9.15;3.90;;;;;;;19.90;79.22;100080.78;1779843;81;21140;-63
2021/07/23 02:16:08;;;;;;;8.18;3.90;;;;;;;19.92;79.18;100081.48;1779815;81;21542;-63
2021/07/23 02:18:37;;;;;;;7.80;3.83;;;;;;;19.95;79.16;100076.35;1779820;80;21150;-63
2021/07/23 02:21:08;;;;;;;10.68;3.75;;;;;;;19.98;79.20;100078.76;1779259;80;21100;-63
2021/07/23 02:23:37;;;;;;;9.88;4.15;;;;;;;20.01;79.33;100074.45;1779948;81;21496;-63
2021/07/23 02:26:07;;;;;;;9.95;3.70;;;;;;;20.05;79.40;100077.23;1779786;81;21589;-62
2021/07/23 02:28:36;;;;;;;12.75;4.55;;;;;;;20.11;79.43;100081.19;1778964;81;21073;-63
2021/07/23 02:31:09;;;;;;;7.62;3.45;;;;;;;20.16;79.48;100077.58;1779761;81;21060;-63
2021/07/23 02:33:40;;;;;;;10.13;3.92;;;;;;;20.23;79.56;100080.06;1778538;80;21530;-63
2021/07/23 02:36:10;;;;;;;9.63;3.87;;;;;;;20.33;79.70;100081.44;1778067;80;21636;-62
2021/07/23 02:38:39;;;;;;;9.15;3.65;;;;;;;20.46;79.62;100087.34;1779961;81;21491;-63
2021/07/23 02:41:09;;;;;;;7.53;3.75;;;;;;;20.61;79.58;100087.80;1779784;80;21100;-62
2021/07/23 02:43:38;;;;;;;6.53;3.80;;;;;;;20.72;79.58;100095.69;1779809;81;21096;-63
2021/07/23 02:46:07;;;;;;;9.15;3.58;;;;;;;20.86;79.62;100091.75;1779749;81;21220;-63
2021/07/23 02:48:36;;;;;;;11.28;4.37;;;;;;;21.03;79.64;100100.88;1779787;80;21507;-63
2021/07/23 02:51:05;;;;;;;11.25;4.37;;;;;;;21.14;79.58;100103.89;1779757;81;21604;-63
2021/07/23 02:53:34;;;;;;;11.18;4.50;;;;;;;21.21;79.20;100109.03;1779909;80;21636;-63
2021/07/23 02:56:03;;;;;;;14.23;4.30;;;;;;;21.27;78.94;100112.96;1779896;81;21221;-63
2021/07/23 02:58:32;;;;;;;7.83;3.80;;;;;;;21.43;78.95;100118.53;1779718;81;21163;-62
2021/07/23 03:01:07;;;;;;;9.93;3.83;;;;;;;21.56;78.80;100119.11;1779719;81;21076;-63
2021/07/23 03:03:37;;;;;;;8.73;3.85;;;;;;;21.62;78.38;100123.54;1793067;80;21183;-64
2021/07/23 03:06:06;;;;;;;8.85;3.98;;;;;;;21.57;78.01;100128.81;1793625;80;21518;-64
2021/07/23 03:08:36;;;;;;;8.88;3.42;;;;;;;21.53;77.75;100136.80;1793635;80;21112;-63
2021/07/23 03:11:06;;;;;;;10.53;3.92;;;;;;;21.46;77.56;100139.70;1793522;80;21542;-63
2021/07/23 03:13:37;;;;;;;10.40;4.35;;;;;;;21.41;77.46;100144.61;1792262;80;21177;-63
2021/07/23 03:16:14;;;;;;;10.45;4.40;;;;;;;21.39;77.41;100149.27;1793604;80;21096;-63
2021/07/23 03:18:41;;;;;;;9.70;4.12;;;;;;;21.37;77.40;100155.27;1793266;80;21096;-63
2021/07/23 03:21:11;;;;;;;9.08;3.90;;;;;;;21.37;77.38;100159.29;1793680;80;21056;-62
2021/07/23 03:23:40;;;;;;;11.03;4.40;;;;;;;21.34;77.39;100160.44;1793626;80;21084;-63
2021/07/23 03:26:09;;;;;;;10.80;4.55;;;;;;;21.33;77.37;100168.60;1793691;80;21092;-62
2021/07/23 03:28:43;;;;;;;8.30;3.77;;;;;;;21.31;77.55;100171.92;1793133;80;21514;-63
2021/07/23 03:31:20;;;;;;;13.53;4.62;;;;;;;21.30;77.51;100176.44;1792411;80;21173;-63
2021/07/23 03:33:52;;;;;;;10.90;4.25;;;;;;;21.30;77.55;100179.59;1793099;80;21538;-64
2021/07/23 03:36:22;;;;;;;12.45;4.37;;;;;;;21.30;77.49;100184.95;1790037;80;21171;-63
2021/07/23 03:38:51;;;;;;;14.25;4.30;;;;;;;21.31;77.44;100183.47;1793659;80;21080;-64
2021/07/23 03:41:21;;;;;;;11.35;4.85;;;;;;;21.33;77.48;100182.83;1793619;80;21182;-62
2021/07/23 03:43:50;;;;;;;13.62;4.90;;;;;;;21.34;77.59;100185.00;1793771;80;21178;-60
2021/07/23 03:46:23;;;;;;;;;;;;;;;21.34;77.70;100188.55;1790786;80;21103;-63
2021/07/23 03:48:53;;;;;;;11.53;4.87;;;;;;;21.35;77.61;100181.35;1793681;80;20151;-61
2021/07/23 03:51:23;;;;;;;9.48;3.85;;;;;;;21.42;77.56;100182.47;1791453;80;21075;-61
2021/07/23 03:54:14;;;;;;;11.05;5.12;;;;;;;21.50;77.71;100183.95;1793600;80;21126;-61
2021/07/23 03:56:44;;;;;;;14.10;4.87;;;;;;;21.61;77.75;100186.97;1857380;77;21042;-61
2021/07/23 03:59:14;;;;;;;10.00;4.15;;;;;;;21.77;77.73;100191.22;1857119;77;21077;-61
2021/07/23 04:01:45;;;;;;;12.90;5.22;;;;;;;21.94;77.64;100185.59;1856425;76;21175;-61
2021/07/23 04:04:15;;;;;;;12.85;4.25;;;;;;;22.11;77.25;100184.47;1857474;77;21155;-61
2021/07/23 04:06:44;;;;;;;15.70;5.42;;;;;;;22.38;76.84;100186.84;1857276;77;21489;-61
2021/07/23 04:09:14;;;;;;;20.97;8.48;;;;;;;22.56;76.28;100176.99;1857329;77;21061;-61
2021/07/23 04:11:49;;;;;;;11.18;5.30;;;;;;;22.66;75.69;100183.13;1857167;77;21543;-61
2021/07/23 04:14:18;;;;;;;12.50;5.80;;;;;;;22.77;75.14;100187.43;1857309;77;21532;-62
2021/07/23 04:16:46;;;;;;;12.98;5.37;;;;;;;23.08;74.89;100183.89;1857453;77;21550;-61
2021/07/23 04:19:16;;;;;;;11.18;5.60;;;;;;;23.27;74.63;100185.55;1857327;77;21613;-61
2021/07/23 04:21:46;;;;;;;19.45;5.70;;;;;;;23.31;74.22;100184.27;1856395;77;21041;-61
2021/07/23 04:24:19;;;;;;;;;;;;;;;23.44;73.79;100187.02;1850447;77;21081;-61
2021/07/23 04:26:48;;;;;;;11.75;5.37;;;;;;;23.78;73.80;100191.12;1857406;77;20123;-61
2021/07/23 04:29:18;;;;;;;13.75;4.67;;;;;;;24.29;73.06;100197.97;1857395;77;21014;-61
2021/07/23 04:31:47;;;;;;;17.15;5.03;;;;;;;24.78;72.14;100198.62;1857413;77;21058;-61
2021/07/23 04:34:17;;;;;;;10.43;5.12;;;;;;;25.14;70.77;100198.31;1857448;77;21066;-60
2021/07/23 04:36:50;;;;;;;12.40;4.65;;;;;;;25.55;69.73;100211.83;1847566;77;21135;-61
2021/07/23 04:39:33;;;;;;;11.93;4.93;;;;;;;25.76;68.54;100205.89;1856570;77;21042;-61
2021/07/23 04:42:07;;;;;;;19.75;6.67;;;;;;;25.66;68.00;100214.17;1856947;77;21081;-61
2021/07/23 04:44:36;;;;;;;12.60;4.78;;;;;;;25.43;67.67;100215.36;1857532;77;21050;-61
2021/07/23 04:47:05;;;;;;;10.80;4.87;;;;;;;25.28;67.62;100218.41;1857311;77;21089;-61
2021/07/23 04:49:38;;;;;;;8.38;4.47;;;;;;;25.17;67.54;100220.89;1856978;77;21045;-61
2021/07/23 04:52:08;;;;;;;13.70;5.90;;;;;;;25.08;67.46;100213.81;1856821;77;21065;-61
2021/07/23 04:54:56;;;;;;;11.48;4.83;;;;;;;25.15;67.43;100218.88;1856730;76;21595;-61
2021/07/23 04:57:47;;;;;;;10.23;4.37;;;;;;;25.37;67.11;100221.44;1845784;78;21058;-61
2021/07/23 05:00:17;;;;;;;10.08;4.67;;;;;;;25.37;66.61;100222.78;1845797;78;21051;-61
2021/07/23 05:02:47;;;;;;;18.30;5.17;;;;;;;25.27;66.29;100220.27;1845809;78;21074;-61
2021/07/23 05:05:16;;;;;;;12.45;4.53;;;;;;;25.06;66.52;100226.09;1845256;77;21086;-61
2021/07/23 05:07:45;;;;;;;11.63;4.30;;;;;;;24.91;66.60;100225.91;1845968;78;21582;-61
2021/07/23 05:10:14;;;;;;;13.98;6.65;;;;;;;24.73;66.76;100222.50;1845753;77;21531;-61
2021/07/23 05:12:43;;;;;;;10.30;4.15;;;;;;;24.60;66.84;100222.97;1845789;77;21034;-61
2021/07/23 05:15:13;;;;;;;13.08;4.90;;;;;;;24.47;67.12;100223.41;1845823;78;21473;-61
2021/07/23 05:17:43;;;;;;;14.40;4.95;;;;;;;24.41;67.09;100226.75;1845944;78;21066;-60
2021/07/23 05:20:12;;;;;;;11.08;4.62;;;;;;;24.36;67.13;100229.08;1845821;78;21527;-61
2021/07/23 05:22:41;;;;;;;10.28;4.80;;;;;;;24.35;67.06;100226.91;1845821;78;21043;-61
2021/07/23 05:25:12;;;;;;;11.55;5.10;;;;;;;24.37;66.88;100228.09;1845800;78;21169;-61
2021/07/23 05:27:41;;;;;;;13.18;4.30;;;;;;;24.39;66.92;100235.49;1845797;77;21108;-61
2021/07/23 05:30:10;;;;;;;8.78;3.98;;;;;;;24.57;66.99;100231.39;1845775;78;21449;-61
2021/07/23 05:32:39;;;;;;;12.85;4.53;;;;;;;24.72;66.69;100236.98;1845807;78;21042;-61
2021/07/23 05:35:09;;;;;;;11.03;4.08;;;;;;;24.75;66.53;100244.23;1845696;78;21046;-61
2021/07/23 05:37:38;;;;;;;8.73;4.47;;;;;;;24.77;66.50;100246.73;1845820;78;21120;-61
2021/07/23 05:40:07;;;;;;;9.03;3.77;;;;;;;24.93;66.38;100248.13;1845868;78;21022;-61
2021/07/23 05:42:36;;;;;;;12.73;4.17;;;;;;;25.25;65.96;100253.27;1845753;78;21121;-61
2021/07/23 05:45:06;;;;;;;11.78;4.12;;;;;;;25.69;65.48;100259.64;1845884;77;21074;-61
2021/07/23 05:47:35;;;;;;;11.33;4.10;;;;;;;25.78;64.80;100260.00;1845672;77;21461;-61
2021/07/23 05:50:04;;;;;;;9.48;4.05;;;;;;;25.81;64.53;100263.68;1845798;78;21160;-61
2021/07/23 05:52:33;;;;;;;10.08;4.12;;;;;;;25.83;64.25;100266.73;1845794;78;21098;-61
2021/07/23 05:55:01;;;;;;;11.97;4.50;;;;;;;25.90;64.28;100268.56;1845779;78;21124;-61
2021/07/23 05:57:30;;;;;;;11.33;4.85;;;;;;;26.05;63.87;100267.37;1832977;76;21081;-61
2021/07/23 05:59:59;;;;;;;9.85;4.83;;;;;;;26.17;63.56;100270.05;1829282;77;21090;-62
2021/07/23 06:02:28;;;;;;;9.43;5.12;;;;;;;26.34;63.43;100266.79;1829457;78;21175;-61
2021/07/23 06:04:56;;;;;;;13.30;6.12;;;;;;;26.59;63.25;100272.08;1829383;78;21545;-61
2021/07/23 06:07:25;;;;;;;8.00;4.72;;;;;;;27.03;62.80;100277.45;1829402;78;21163;-61
2021/07/23 06:09:54;;;;;;;8.50;4.80;;;;;;;27.28;61.92;100280.36;1829400;78;21639;-60
2021/07/23 06:12:22;;;;;;;11.65;5.08;;;;;;;27.39;60.82;100278.23;1829284;78;21074;-62
2021/07/23 06:14:51;;;;;;;10.80;5.10;;;;;;;27.90;60.14;100276.62;1829342;78;21136;-61
2021/07/23 06:17:20;;;;;;;9.60;4.67;;;;;;;28.26;59.17;100275.08;1829525;78;21086;-60
2021/07/23 06:19:49;;;;;;;13.90;5.28;;;;;;;28.21;58.52;100288.33;1829395;78;21544;-61
2021/07/23 06:22:19;;;;;;;10.68;4.97;;;;;;;28.18;58.01;100288.17;1829472;78;21089;-61
2021/07/23 06:24:48;;;;;;;11.10;5.85;;;;;;;28.42;57.78;100285.72;1829487;78;21082;-61
2021/07/23 06:27:19;;;;;;;11.73;4.95;;;;;;;28.53;57.48;100289.83;1829275;77;21082;-61
2021/07/23 06:29:48;;;;;;;7.90;4.90;;;;;;;28.60;56.95;100290.76;1829396;78;21110;-61
2021/07/23 06:32:17;;;;;;;9.73;4.62;;;;;;;28.76;56.42;100291.59;1829483;78;21124;-61
2021/07/23 06:34:46;;;;;;;8.13;5.15;;;;;;;29.14;56.24;100285.49;1829477;78;21122;-61
2021/07/23 06:37:20;;;;;;;12.95;5.15;;;;;;;29.45;55.24;100285.17;1829385;78;21082;-61
2021/07/23 06:39:44;;;;;;;8.20;4.75;;;;;;;29.71;54.82;100284.22;1828615;78;21054;-61
2021/07/23 06:42:14;;;;;;;8.80;5.08;;;;;;;30.06;53.56;100276.98;1829382;78;21090;-61
2021/07/23 06:44:43;;;;;;;12.85;5.00;;;;;;;30.29;53.12;100282.16;1829476;77;21075;-61
2021/07/23 06:47:12;;;;;;;12.20;4.70;;;;;;;30.72;52.29;100275.16;1829396;78;21144;-61
2021/07/23 06:49:41;;;;;;;9.55;4.50;;;;;;;30.68;51.92;100275.26;1829342;78;21141;-60
2021/07/23 06:52:10;;;;;;;6.00;4.22;;;;;;;30.60;51.73;100271.37;1829242;78;21452;-61
2021/07/23 06:54:40;;;;;;;12.85;4.40;;;;;;;30.71;51.19;100275.36;1829456;78;21095;-61
2021/07/23 06:57:09;;;;;;;12.53;4.25;;;;;;;31.17;50.47;100269.23;1829329;76;21115;-61
2021/07/23 06:59:38;;;;;;;12.23;4.15;;;;;;;31.50;49.45;100269.83;1829339;78;21086;-61
2021/07/23 07:02:07;;;;;;;9.80;4.37;;;;;;;31.73;49.00;100272.14;1829357;78;21148;-61
2021/07/23 07:04:37;;;;;;;7.40;3.83;;;;;;;32.13;48.26;100272.13;1829322;78;21167;-61
2021/07/23 07:07:07;;;;;;;8.55;4.00;;;;;;;32.39;47.31;100281.24;1829361;78;21130;-61
2021/07/23 07:09:37;;;;;;;11.08;4.37;;;;;;;32.69;46.18;100273.42;1829342;77;21082;-60
2021/07/23 07:12:06;;;;;;;7.30;4.10;;;;;;;33.00;45.20;100279.44;1829478;78;21318;-61
2021/07/23 07:14:35;;;;;;;8.50;3.80;;;;;;;33.04;44.46;100281.20;1829368;78;21112;-61
2021/07/23 07:17:07;;;;;;;10.20;4.08;;;;;;;33.32;43.74;100278.64;1829359;78;21049;-62
2021/07/23 07:19:36;;;;;;;6.65;4.05;;;;;;;33.15;43.27;100279.70;1829477;78;21046;-61
2021/07/23 07:22:05;;;;;;;8.28;4.17;;;;;;;32.40;43.75;100285.66;1829538;78;21116;-61
2021/07/23 07:24:34;;;;;;;9.03;3.95;;;;;;;31.52;44.26;100289.00;1829457;78;21079;-61
2021/07/23 07:27:04;;;;;;;5.95;3.98;;;;;;;30.95;44.65;100293.03;1829375;78;21164;-61
2021/07/23 07:29:32;;;;;;;9.03;3.77;;;;;;;31.16;44.92;100292.05;1829444;78;21046;-61
2021/07/23 07:32:01;;;;;;;9.15;3.92;;;;;;;31.64;44.38;100290.56;1829374;78;21082;-61
2021/07/23 07:34:34;;;;;;;6.90;3.98;;;;;;;32.17;43.95;100300.60;1829505;78;21559;-61
2021/07/23 07:37:00;;;;;;;8.43;4.00;;;;;;;32.15;43.79;100293.67;1829740;77;21082;-62
2021/07/23 07:39:30;;;;;;;6.20;4.33;;;;;;;31.57;44.19;100302.50;1829440;78;21594;-61
2021/07/23 07:42:06;;;;;;;12.85;4.15;;;;;;;31.05;44.84;100304.36;1829332;78;21140;-61
2021/07/23 07:44:38;;;;;;;6.45;3.98;;;;;;;30.40;45.18;100313.38;1829416;78;21159;-60
2021/07/23 07:47:07;;;;;;;9.33;3.87;;;;;;;29.83;46.09;100314.73;1829622;78;21183;-60
2021/07/23 07:49:36;;;;;;;11.57;3.65;;;;;;;29.86;47.07;100309.41;1829344;78;22140;-61
2021/07/23 07:52:05;;;;;;;11.45;4.35;;;;;;;30.25;46.94;100304.46;1829557;78;21049;-61
2021/07/23 07:54:34;;;;;;;11.20;4.58;;;;;;;30.22;46.57;100307.90;1829500;78;21058;-61
2021/07/23 07:57:10;;;;;;;6.97;3.87;;;;;;;29.95;47.12;100320.44;1829397;78;21195;-61
2021/07/23 07:59:39;;;;;;;6.30;4.17;;;;;;;29.95;47.31;100321.80;1819783;79;21051;-60
2021/07/23 08:02:09;;;;;;;9.03;4.12;;;;;;;30.90;46.89;100313.19;1819789;79;21012;-61
2021/07/23 08:04:39;;;;;;;14.85;4.17;;;;;;;30.94;45.88;100326.70;1819884;79;21106;-60
2021/07/23 08:07:18;;;;;;;5.55;4.05;;;;;;;31.19;45.35;100324.28;1819878;79;21016;-61
2021/07/23 08:09:55;;;;;;;7.28;4.40;;;;;;;31.24;45.22;100328.56;1817829;79;21040;-61
2021/07/23 08:12:23;;;;;;;15.78;6.10;;;;;;;30.97;45.52;100335.83;1819779;79;21142;-60
2021/07/23 08:14:52;;;;;;;25.55;8.28;;;;;;;30.25;47.08;100341.12;1819817;79;21036;-60
2021/07/23 08:17:22;;;;;;;16.57;8.30;;;;;;;29.51;49.43;100354.56;1819935;78;21447;-61
2021/07/23 08:19:51;;;;;;;14.80;8.58;;;;;;;28.78;51.54;100349.97;1819468;79;21482;-60
2021/07/23 08:22:20;;;;;;;15.20;9.10;;;;;;;28.19;53.06;100347.23;1818078;79;21525;-60
2021/07/23 08:24:48;;;;;;;14.68;9.78;;;;;;;27.69;54.53;100357.62;1818068;79;21580;-60
2021/07/23 08:27:18;;;;;;;14.58;9.98;;;;;;;27.38;55.77;100357.67;1817992;79;21068;-60
2021/07/23 08:29:47;;;;;;;12.90;9.98;;;;;;;27.18;56.94;100352.67;1818101;79;21092;-61
2021/07/23 08:32:16;;;;;;;14.03;10.40;;;;;;;27.16;58.17;100350.14;1817962;79;21391;-61
2021/07/23 08:34:45;;;;;;;16.20;10.48;;;;;;;27.26;58.08;100355.37;1818080;79;21049;-61
2021/07/23 08:37:14;;;;;;;14.60;11.22;;;;;;;27.43;58.00;100355.28;1818177;79;21110;-61
2021/07/23 08:39:43;;;;;;;15.40;9.73;;;;;;;28.13;58.32;100345.23;1818065;79;21036;-61
2021/07/23 08:42:25;;;;;;;10.43;8.85;;;;;;;28.88;57.41;100346.45;1818026;79;21085;-62
2021/07/23 08:44:54;;;;;;;8.38;7.15;;;;;;;30.05;54.94;100353.22;1818058;79;21036;-61
2021/07/23 08:47:24;;;;;;;10.20;7.33;;;;;;;30.86;53.20;100359.45;1818175;79;21447;-61
2021/07/23 08:49:54;;;;;;;9.88;7.28;;;;;;;31.54;52.07;100346.77;1818069;79;21483;-61
2021/07/23 08:52:45;;;;;;;11.60;6.53;;;;;;;32.39;49.77;100351.58;1818155;79;21029;-62
2021/07/23 08:55:19;;;;;;;7.53;5.65;;;;;;;32.96;47.88;100342.30;1817963;79;21032;-61
2021/07/23 08:57:48;;;;;;;6.95;5.78;;;;;;;33.51;45.08;100351.86;1818179;79;21064;-61
2021/07/23 09:00:20;;;;;;;6.03;4.22;;;;;;;33.29;43.30;100346.74;1850819;77;21646;-61
2021/07/23 09:02:57;;;;;;;5.72;3.83;;;;;;;33.63;42.76;100348.73;1850417;77;21091;-62
2021/07/23 09:05:31;;;;;;;7.55;4.12;;;;;;;33.67;41.66;100347.80;1850391;77;21129;-61
2021/07/23 09:08:02;;;;;;;6.05;3.98;;;;;;;33.49;41.98;100354.80;1850437;77;21108;-61
2021/07/23 09:10:31;;;;;;;6.05;4.30;;;;;;;33.00;42.37;100347.62;1850517;77;21026;-60
2021/07/23 09:13:05;;;;;;;4.95;4.40;;;;;;;33.26;41.92;100352.66;1850404;77;21546;-62
2021/07/23 09:15:42;;;;;;;5.15;3.47;;;;;;;33.63;41.17;100348.73;1850538;77;21108;-61
2021/07/23 09:18:31;;;;;;;7.30;2.60;;;;;;;34.10;40.59;100353.28;1850556;77;21116;-61
2021/07/23 09:21:07;;;;;;;3.35;2.75;;;;;;;34.46;38.86;100351.70;1850192;77;21043;-61
2021/07/23 09:23:38;;;;;;;5.20;3.17;;;;;;;34.79;38.25;100355.45;1848479;77;21489;-61
2021/07/23 09:26:12;;;;;;;5.80;4.42;;;;;;;34.49;38.18;100358.09;1850552;77;21125;-61
2021/07/23 09:28:49;;;;;;;7.20;3.30;;;;;;;33.75;38.39;100361.16;1850470;77;21067;-61
2021/07/23 09:31:24;;;;;;;5.28;3.77;;;;;;;33.80;38.19;100351.23;1848783;77;21067;-61
2021/07/23 09:34:00;;;;;;;7.42;3.95;;;;;;;33.95;38.02;100356.91;1850528;77;21144;-61
2021/07/23 09:36:29;;;;;;;6.03;3.58;;;;;;;33.93;38.77;100353.56;1850629;77;21032;-61
2021/07/23 09:39:08;;;;;;;4.40;3.70;;;;;;;34.15;38.40;100352.63;1850421;77;21524;-62
2021/07/23 09:41:36;;;;;;;4.67;3.02;;;;;;;33.88;38.25;100360.22;1850518;77;21542;-61
2021/07/23 09:44:08;;;;;;;4.90;2.87;;;;;;;33.13;38.63;100356.30;1850596;77;21054;-61
2021/07/23 09:46:42;;;;;;;7.67;3.30;;;;;;;32.36;39.69;100353.36;1850790;77;21025;-61
2021/07/23 09:49:24;;;;;;;7.65;2.98;;;;;;;31.84;40.87;100355.89;1850513;77;21269;-61
2021/07/23 09:51:55;;;;;;;8.97;3.13;;;;;;;31.53;41.69;100364.12;1850885;77;21039;-61
2021/07/23 09:54:24;;;;;;;5.10;2.98;;;;;;;31.05;42.32;100357.38;1850559;77;21014;-61
2021/07/23 09:56:53;;;;;;;4.42;2.83;;;;;;;30.68;43.03;100354.06;1850503;77;21047;-61
2021/07/23 09:59:24;;;;;;;6.72;2.60;;;;;;;30.61;43.38;100357.25;1850437;77;21144;-61
2021/07/23 10:01:56;;;;;;;6.25;3.20;;;;;;;31.05;42.53;100351.94;1850307;77;21047;-62
2021/07/23 10:04:36;;;;;;;5.30;2.80;;;;;;;31.62;43.01;100353.88;1850821;77;21536;-61
2021/07/23 10:07:23;;;;;;;3.72;2.37;;;;;;;32.17;41.63;100356.94;1846050;77;21059;-61
2021/07/23 10:09:54;;;;;;;6.53;2.70;;;;;;;32.51;40.29;100344.94;1850814;77;21120;-62
2021/07/23 10:12:23;;;;;;;4.05;2.12;;;;;;;32.93;40.32;100356.35;1850366;77;21572;-62
2021/07/23 10:14:53;;;;;;;5.30;2.90;;;;;;;33.25;39.65;100353.70;1850468;77;21497;-62
2021/07/23 10:17:23;;;;;;;5.97;2.55;;;;;;;33.56;38.74;100347.41;1850524;77;21542;-62
2021/07/23 10:19:56;;;;;;;6.33;2.50;;;;;;;33.78;38.38;100350.62;1850623;77;21018;-62
2021/07/23 10:22:24;;;;;;;4.92;2.05;;;;;;;33.90;37.70;100343.08;1850116;77;21120;-62
2021/07/23 10:24:54;;;;;;;4.25;2.17;;;;;;;34.00;37.17;100348.88;1850405;77;21042;-62
2021/07/23 10:27:25;;;;;;;4.53;2.30;;;;;;;33.76;36.71;100347.29;1850627;77;21047;-62
2021/07/23 10:29:55;;;;;;;4.67;1.98;;;;;;;33.19;37.33;100349.95;1850650;77;21026;-62
2021/07/23 10:32:32;;;;;;;11.80;2.67;;;;;;;32.66;37.83;100345.53;1850503;77;21477;-63
2021/07/23 10:35:19;;;;;;;5.65;2.40;;;;;;;32.52;38.51;100346.63;1850524;77;21079;-62
2021/07/23 10:37:53;;;;;;;4.30;2.20;;;;;;;32.19;38.72;100357.06;1850465;77;21066;-61
2021/07/23 10:40:40;;;;;;;6.75;2.65;;;;;;;31.80;38.81;100360.58;1850511;77;21046;-62
2021/07/23 10:43:34;;;;;;;3.80;2.33;;;;;;;31.48;39.64;100357.62;1850440;77;21193;-62
2021/07/23 10:46:03;;;;;;;6.08;2.22;;;;;;;31.60;40.49;100355.98;1850580;77;21038;-62
2021/07/23 10:48:49;;;;;;;4.33;2.10;;;;;;;32.09;39.93;100353.41;1850565;77;21038;-62
2021/07/23 10:51:50;;;;;;;8.48;2.77;;;;;;;32.46;39.29;100353.77;1850599;77;21121;-62
2021/07/23 10:54:21;;;;;;;4.00;2.25;;;;;;;32.64;38.53;100349.54;1850464;77;21513;-62
2021/07/23 10:57:00;;;;;;;6.10;2.62;;;;;;;32.72;37.54;100356.13;1849789;77;21466;-62
2021/07/23 10:59:49;;;;;;;4.87;2.50;;;;;;;32.77;38.13;100349.48;1850497;77;21109;-62
2021/07/23 11:02:21;;;;;;;7.53;2.62;;;;;;;32.76;37.38;100348.33;1850426;77;21047;-62
2021/07/23 11:04:55;;;;;;;7.25;2.67;;;;;;;32.35;37.82;100357.65;1850612;77;21047;-62
2021/07/23 11:07:27;;;;;;;5.55;2.60;;;;;;;32.09;38.41;100360.72;1849199;77;21073;-62
2021/07/23 11:09:56;;;;;;;4.60;2.45;;;;;;;31.80;38.86;100360.08;1850445;77;21571;-62
2021/07/23 11:12:26;;;;;;;8.38;3.50;;;;;;;31.54;39.21;100354.09;1850700;77;21457;-62
2021/07/23 11:15:00;;;;;;;6.33;2.60;;;;;;;31.17;39.81;100364.41;1850401;77;21113;-62
2021/07/23 11:17:29;;;;;;;5.90;2.62;;;;;;;30.81;40.22;100375.03;1850596;77;21274;-63
2021/07/23 11:20:03;;;;;;;5.05;2.40;;;;;;;30.50;40.43;100373.59;1850586;77;21043;-63
2021/07/23 11:22:38;;;;;;;4.75;2.00;;;;;;;30.32;41.20;100370.02;1850728;77;21046;-63
2021/07/23 11:25:10;;;;;;;6.62;2.20;;;;;;;30.16;41.42;100371.68;1850562;77;21038;-63
2021/07/23 11:27:42;;;;;;;5.90;2.42;;;;;;;30.01;41.51;100367.70;1850488;77;21038;-63
2021/07/23 11:30:23;;;;;;;5.60;2.40;;;;;;;29.86;41.93;100371.83;1850608;77;21054;-63
2021/07/23 11:32:56;;;;;;;6.85;2.58;;;;;;;29.83;41.81;100374.95;1850512;77;21043;-62
2021/07/23 11:35:27;;;;;;;3.87;2.00;;;;;;;29.82;42.51;100372.77;1850494;77;21043;-63
2021/07/23 11:37:57;;;;;;;5.10;2.20;;;;;;;29.82;42.25;100368.70;1850351;77;21070;-63
2021/07/23 11:40:27;;;;;;;5.15;2.33;;;;;;;29.85;41.92;100370.16;1850498;77;21560;-64